sensor_id;sensor_type;location;lat;lon;timestamp;P1;durP1;ratioP1;P2;durP2;ratioP2
9304;SDS011;4690;52.422;13.486;2024-01-15T00:10:15;11.83;;;10.63;;
9304;SDS011;4690;52.422;13.486;2024-01-15T00:12:41;12.17;;;10.83;;
9304;SDS011;4690;52.422;13.486;2024-01-15T00:15:07;11.60;;;10.50;;
9304;SDS011;4690;52.422;13.486;2024-01-15T00:17:34;12.43;;;11.23;;
9304;SDS011;4690;52.422;13.486;2024-01-15T00:19:59;12.57;;;10.60;;
9304;SDS011;4690;52.422;13.486;2024-01-15T00:22:25;12.17;;;10.97;;
9304;SDS011;4690;52.422;13.486;2024-01-15T00:24:52;12.40;;;11.10;;
9304;SDS011;4690;52.422;13.486;2024-01-15T00:27:18;11.93;;;10.73;;
9304;SDS011;4690;52.422;13.486;2024-01-15T00:29:43;11.77;;;10.67;;
9304;SDS011;4690;52.422;13.486;2024-01-15T00:32:09;12.07;;;10.87;;
9304;SDS011;4690;52.422;13.486;2024-01-15T00:34:35;11.43;;;10.33;;
9304;SDS011;4690;52.422;13.486;2024-01-15T00:37:00;11.47;;;10.37;;
9304;SDS011;4690;52.422;13.486;2024-01-15T00:39:26;12.30;;;11.20;;
9304;SDS011;4690;52.422;13.486;2024-01-15T00:41:52;12.00;;;10.80;;
9304;SDS011;4690;52.422;13.486;2024-01-15T00:44:18;12.47;;;11.23;;
9304;SDS011;4690;52.422;13.486;2024-01-15T00:46:44;12.17;;;10.97;;
9304;SDS011;4690;52.422;13.486;2024-01-15T00:49:13;13.30;;;10.90;;
9304;SDS011;4690;52.422;13.486;2024-01-15T00:51:39;12.27;;;11.07;;
9304;SDS011;4690;52.422;13.486;2024-01-15T00:54:05;12.20;;;10.80;;
9304;SDS011;4690;52.422;13.486;2024-01-15T00:56:32;11.70;;;10.50;;
9304;SDS011;4690;52.422;13.486;2024-01-15T00:58:57;11.30;;;10.10;;
9304;SDS011;4690;52.422;13.486;2024-01-15T01:01:23;12.60;;;11.30;;
9304;SDS011;4690;52.422;13.486;2024-01-15T01:03:49;12.63;;;10.93;;
9304;SDS011;4690;52.422;13.486;2024-01-15T01:06:14;12.07;;;10.87;;
9304;SDS011;4690;52.422;13.486;2024-01-15T01:08:40;11.77;;;10.57;;
9304;SDS011;4690;52.422;13.486;2024-01-15T01:11:06;11.60;;;10.40;;
9304;SDS011;4690;52.422;13.486;2024-01-15T01:13:32;14.80;;;11.27;;
9304;SDS011;4690;52.422;13.486;2024-01-15T01:15:58;12.30;;;11.03;;
9304;SDS011;4690;52.422;13.486;2024-01-15T01:18:23;12.20;;;11.00;;
9304;SDS011;4690;52.422;13.486;2024-01-15T01:20:49;11.83;;;10.63;;
9304;SDS011;4690;52.422;13.486;2024-01-15T01:23:16;12.77;;;11.00;;
9304;SDS011;4690;52.422;13.486;2024-01-15T01:25:41;13.10;;;11.80;;
9304;SDS011;4690;52.422;13.486;2024-01-15T01:28:07;11.70;;;10.50;;
9304;SDS011;4690;52.422;13.486;2024-01-15T01:30:34;12.33;;;11.03;;
9304;SDS011;4690;52.422;13.486;2024-01-15T01:33:00;12.07;;;10.80;;
9304;SDS011;4690;52.422;13.486;2024-01-15T01:35:25;12.43;;;11.20;;
9304;SDS011;4690;52.422;13.486;2024-01-15T01:37:51;12.17;;;10.97;;
9304;SDS011;4690;52.422;13.486;2024-01-15T01:40:17;12.43;;;10.80;;
9304;SDS011;4690;52.422;13.486;2024-01-15T01:42:42;12.47;;;11.17;;
9304;SDS011;4690;52.422;13.486;2024-01-15T01:45:08;14.97;;;11.50;;
9304;SDS011;4690;52.422;13.486;2024-01-15T01:47:34;12.73;;;11.33;;
9304;SDS011;4690;52.422;13.486;2024-01-15T01:50:01;12.73;;;11.40;;
9304;SDS011;4690;52.422;13.486;2024-01-15T01:52:28;14.27;;;12.60;;
9304;SDS011;4690;52.422;13.486;2024-01-15T01:54:54;13.73;;;12.20;;
9304;SDS011;4690;52.422;13.486;2024-01-15T01:57:20;15.83;;;12.77;;
9304;SDS011;4690;52.422;13.486;2024-01-15T01:59:46;14.53;;;12.87;;
9304;SDS011;4690;52.422;13.486;2024-01-15T02:02:12;16.33;;;14.13;;
9304;SDS011;4690;52.422;13.486;2024-01-15T02:04:40;16.47;;;14.10;;
9304;SDS011;4690;52.422;13.486;2024-01-15T02:07:05;15.10;;;13.50;;
9304;SDS011;4690;52.422;13.486;2024-01-15T02:09:31;16.87;;;14.23;;
9304;SDS011;4690;52.422;13.486;2024-01-15T02:11:57;16.00;;;14.30;;
9304;SDS011;4690;52.422;13.486;2024-01-15T02:14:23;14.37;;;12.87;;
9304;SDS011;4690;52.422;13.486;2024-01-15T02:16:49;14.93;;;13.17;;
9304;SDS011;4690;52.422;13.486;2024-01-15T02:19:15;16.00;;;13.90;;
9304;SDS011;4690;52.422;13.486;2024-01-15T02:21:42;13.07;;;11.67;;
9304;SDS011;4690;52.422;13.486;2024-01-15T02:24:08;14.50;;;12.93;;
9304;SDS011;4690;52.422;13.486;2024-01-15T02:26:34;13.50;;;11.43;;
9304;SDS011;4690;52.422;13.486;2024-01-15T02:29:01;12.73;;;11.30;;
9304;SDS011;4690;52.422;13.486;2024-01-15T02:31:27;12.53;;;11.23;;
9304;SDS011;4690;52.422;13.486;2024-01-15T02:33:53;14.97;;;10.70;;
9304;SDS011;4690;52.422;13.486;2024-01-15T02:36:19;11.70;;;10.50;;
9304;SDS011;4690;52.422;13.486;2024-01-15T02:38:44;14.17;;;11.10;;
9304;SDS011;4690;52.422;13.486;2024-01-15T02:41:10;12.30;;;10.40;;
9304;SDS011;4690;52.422;13.486;2024-01-15T02:43:39;11.87;;;10.37;;
9304;SDS011;4690;52.422;13.486;2024-01-15T02:46:06;11.43;;;9.33;;
9304;SDS011;4690;52.422;13.486;2024-01-15T02:48:32;11.23;;;10.13;;
9304;SDS011;4690;52.422;13.486;2024-01-15T02:50:59;13.27;;;10.40;;
9304;SDS011;4690;52.422;13.486;2024-01-15T02:53:27;11.93;;;10.63;;
9304;SDS011;4690;52.422;13.486;2024-01-15T02:55:53;10.73;;;9.73;;
9304;SDS011;4690;52.422;13.486;2024-01-15T02:58:18;10.67;;;9.57;;
9304;SDS011;4690;52.422;13.486;2024-01-15T03:00:44;11.43;;;10.03;;
9304;SDS011;4690;52.422;13.486;2024-01-15T03:03:11;10.80;;;9.70;;
9304;SDS011;4690;52.422;13.486;2024-01-15T03:05:37;11.17;;;10.07;;
9304;SDS011;4690;52.422;13.486;2024-01-15T03:08:03;10.63;;;9.40;;
9304;SDS011;4690;52.422;13.486;2024-01-15T03:10:29;12.03;;;9.87;;
9304;SDS011;4690;52.422;13.486;2024-01-15T03:12:55;10.70;;;9.70;;
9304;SDS011;4690;52.422;13.486;2024-01-15T03:15:20;11.00;;;9.67;;
9304;SDS011;4690;52.422;13.486;2024-01-15T03:17:46;11.47;;;10.00;;
9304;SDS011;4690;52.422;13.486;2024-01-15T03:20:12;13.93;;;9.50;;
9304;SDS011;4690;52.422;13.486;2024-01-15T03:22:38;10.57;;;9.33;;
9304;SDS011;4690;52.422;13.486;2024-01-15T03:25:04;10.87;;;8.50;;
9304;SDS011;4690;52.422;13.486;2024-01-15T03:27:31;9.73;;;8.30;;
9304;SDS011;4690;52.422;13.486;2024-01-15T03:29:57;13.20;;;8.93;;
9304;SDS011;4690;52.422;13.486;2024-01-15T03:32:22;9.13;;;8.23;;
9304;SDS011;4690;52.422;13.486;2024-01-15T03:34:48;8.73;;;7.80;;
9304;SDS011;4690;52.422;13.486;2024-01-15T03:37:14;9.13;;;7.60;;
9304;SDS011;4690;52.422;13.486;2024-01-15T03:39:40;8.97;;;7.57;;
9304;SDS011;4690;52.422;13.486;2024-01-15T03:42:06;8.67;;;7.40;;
9304;SDS011;4690;52.422;13.486;2024-01-15T03:44:32;8.90;;;7.43;;
9304;SDS011;4690;52.422;13.486;2024-01-15T03:46:57;11.97;;;7.60;;
9304;SDS011;4690;52.422;13.486;2024-01-15T03:49:23;10.23;;;7.40;;
9304;SDS011;4690;52.422;13.486;2024-01-15T03:51:49;10.77;;;7.57;;
9304;SDS011;4690;52.422;13.486;2024-01-15T03:54:15;9.03;;;7.43;;
9304;SDS011;4690;52.422;13.486;2024-01-15T03:56:41;8.97;;;7.20;;
9304;SDS011;4690;52.422;13.486;2024-01-15T03:59:06;11.20;;;7.27;;
9304;SDS011;4690;52.422;13.486;2024-01-15T04:01:32;10.80;;;7.63;;
9304;SDS011;4690;52.422;13.486;2024-01-15T04:03:58;10.23;;;7.30;;
9304;SDS011;4690;52.422;13.486;2024-01-15T04:06:24;9.67;;;7.10;;
9304;SDS011;4690;52.422;13.486;2024-01-15T04:08:49;10.70;;;6.70;;
9304;SDS011;4690;52.422;13.486;2024-01-15T04:11:15;9.83;;;7.33;;
9304;SDS011;4690;52.422;13.486;2024-01-15T04:13:41;9.70;;;6.70;;
9304;SDS011;4690;52.422;13.486;2024-01-15T04:16:06;10.73;;;7.23;;
9304;SDS011;4690;52.422;13.486;2024-01-15T04:18:32;8.83;;;6.93;;
9304;SDS011;4690;52.422;13.486;2024-01-15T04:20:58;10.13;;;6.83;;
9304;SDS011;4690;52.422;13.486;2024-01-15T04:23:24;10.33;;;6.80;;
9304;SDS011;4690;52.422;13.486;2024-01-15T04:25:49;9.07;;;6.43;;
9304;SDS011;4690;52.422;13.486;2024-01-15T04:28:15;10.47;;;6.83;;
9304;SDS011;4690;52.422;13.486;2024-01-15T04:30:41;9.83;;;6.57;;
9304;SDS011;4690;52.422;13.486;2024-01-15T04:33:06;8.63;;;5.90;;
9304;SDS011;4690;52.422;13.486;2024-01-15T04:35:32;8.73;;;6.17;;
9304;SDS011;4690;52.422;13.486;2024-01-15T04:37:59;10.37;;;6.10;;
9304;SDS011;4690;52.422;13.486;2024-01-15T04:40:24;11.37;;;6.30;;
9304;SDS011;4690;52.422;13.486;2024-01-15T04:42:52;10.93;;;6.27;;
9304;SDS011;4690;52.422;13.486;2024-01-15T04:45:19;8.97;;;5.93;;
9304;SDS011;4690;52.422;13.486;2024-01-15T04:47:47;7.97;;;5.83;;
9304;SDS011;4690;52.422;13.486;2024-01-15T04:50:14;8.40;;;5.40;;
9304;SDS011;4690;52.422;13.486;2024-01-15T04:52:40;8.87;;;5.17;;
9304;SDS011;4690;52.422;13.486;2024-01-15T04:55:06;9.17;;;5.23;;
9304;SDS011;4690;52.422;13.486;2024-01-15T04:57:32;7.17;;;4.90;;
9304;SDS011;4690;52.422;13.486;2024-01-15T04:59:57;7.57;;;5.23;;
9304;SDS011;4690;52.422;13.486;2024-01-15T05:02:23;9.93;;;5.40;;
9304;SDS011;4690;52.422;13.486;2024-01-15T05:04:49;9.63;;;4.60;;
9304;SDS011;4690;52.422;13.486;2024-01-15T05:07:14;8.30;;;4.90;;
9304;SDS011;4690;52.422;13.486;2024-01-15T05:09:40;7.73;;;5.10;;
9304;SDS011;4690;52.422;13.486;2024-01-15T05:12:06;7.73;;;4.50;;
9304;SDS011;4690;52.422;13.486;2024-01-15T05:14:32;8.73;;;4.53;;
9304;SDS011;4690;52.422;13.486;2024-01-15T05:16:58;7.43;;;4.80;;
9304;SDS011;4690;52.422;13.486;2024-01-15T05:19:24;7.47;;;4.63;;
9304;SDS011;4690;52.422;13.486;2024-01-15T05:21:50;8.40;;;4.70;;
9304;SDS011;4690;52.422;13.486;2024-01-15T05:24:15;10.80;;;4.87;;
9304;SDS011;4690;52.422;13.486;2024-01-15T05:26:41;12.27;;;5.53;;
9304;SDS011;4690;52.422;13.486;2024-01-15T05:29:07;9.27;;;5.03;;
9304;SDS011;4690;52.422;13.486;2024-01-15T05:31:33;8.90;;;5.27;;
9304;SDS011;4690;52.422;13.486;2024-01-15T05:33:58;9.60;;;4.73;;
9304;SDS011;4690;52.422;13.486;2024-01-15T05:36:24;9.50;;;5.37;;
9304;SDS011;4690;52.422;13.486;2024-01-15T05:38:50;9.13;;;4.37;;
9304;SDS011;4690;52.422;13.486;2024-01-15T05:41:15;9.50;;;4.70;;
9304;SDS011;4690;52.422;13.486;2024-01-15T05:43:41;7.77;;;4.60;;
9304;SDS011;4690;52.422;13.486;2024-01-15T05:46:07;8.07;;;4.57;;
9304;SDS011;4690;52.422;13.486;2024-01-15T05:48:32;9.53;;;4.53;;
9304;SDS011;4690;52.422;13.486;2024-01-15T05:50:58;4.80;;;3.80;;
9304;SDS011;4690;52.422;13.486;2024-01-15T05:53:24;9.73;;;4.13;;
9304;SDS011;4690;52.422;13.486;2024-01-15T05:55:50;6.90;;;4.07;;
9304;SDS011;4690;52.422;13.486;2024-01-15T05:58:16;8.23;;;4.03;;
9304;SDS011;4690;52.422;13.486;2024-01-15T06:00:42;9.33;;;4.27;;
9304;SDS011;4690;52.422;13.486;2024-01-15T06:03:07;8.33;;;4.30;;
9304;SDS011;4690;52.422;13.486;2024-01-15T06:05:33;8.90;;;4.03;;
9304;SDS011;4690;52.422;13.486;2024-01-15T06:07:59;7.97;;;4.20;;
9304;SDS011;4690;52.422;13.486;2024-01-15T06:10:25;7.13;;;3.80;;
9304;SDS011;4690;52.422;13.486;2024-01-15T06:12:50;8.67;;;4.03;;
9304;SDS011;4690;52.422;13.486;2024-01-15T06:15:16;10.13;;;4.03;;
9304;SDS011;4690;52.422;13.486;2024-01-15T06:17:42;8.13;;;4.03;;
9304;SDS011;4690;52.422;13.486;2024-01-15T06:20:08;9.83;;;4.00;;
9304;SDS011;4690;52.422;13.486;2024-01-15T06:22:34;9.07;;;4.30;;
9304;SDS011;4690;52.422;13.486;2024-01-15T06:25:01;7.37;;;3.90;;
9304;SDS011;4690;52.422;13.486;2024-01-15T06:27:28;8.00;;;3.83;;
9304;SDS011;4690;52.422;13.486;2024-01-15T06:29:53;11.50;;;4.03;;
9304;SDS011;4690;52.422;13.486;2024-01-15T06:32:21;10.47;;;3.80;;
9304;SDS011;4690;52.422;13.486;2024-01-15T06:34:46;8.93;;;3.90;;
9304;SDS011;4690;52.422;13.486;2024-01-15T06:37:12;9.07;;;3.50;;
9304;SDS011;4690;52.422;13.486;2024-01-15T06:39:38;7.37;;;3.57;;
9304;SDS011;4690;52.422;13.486;2024-01-15T06:42:04;7.30;;;3.70;;
9304;SDS011;4690;52.422;13.486;2024-01-15T06:44:30;8.90;;;3.40;;
9304;SDS011;4690;52.422;13.486;2024-01-15T06:46:55;9.50;;;3.37;;
9304;SDS011;4690;52.422;13.486;2024-01-15T06:49:24;8.03;;;3.10;;
9304;SDS011;4690;52.422;13.486;2024-01-15T06:51:50;8.60;;;3.33;;
9304;SDS011;4690;52.422;13.486;2024-01-15T06:54:16;7.23;;;3.10;;
9304;SDS011;4690;52.422;13.486;2024-01-15T06:56:41;8.43;;;3.50;;
9304;SDS011;4690;52.422;13.486;2024-01-15T06:59:07;9.97;;;2.87;;
9304;SDS011;4690;52.422;13.486;2024-01-15T07:01:33;7.67;;;2.97;;
9304;SDS011;4690;52.422;13.486;2024-01-15T07:03:58;9.20;;;3.10;;
9304;SDS011;4690;52.422;13.486;2024-01-15T07:06:24;8.10;;;3.30;;
9304;SDS011;4690;52.422;13.486;2024-01-15T07:08:50;12.10;;;3.40;;
9304;SDS011;4690;52.422;13.486;2024-01-15T07:11:16;7.57;;;3.00;;
9304;SDS011;4690;52.422;13.486;2024-01-15T07:13:41;9.40;;;3.00;;
9304;SDS011;4690;52.422;13.486;2024-01-15T07:16:07;10.73;;;3.40;;
9304;SDS011;4690;52.422;13.486;2024-01-15T07:18:33;6.50;;;2.90;;
9304;SDS011;4690;52.422;13.486;2024-01-15T07:20:58;8.33;;;3.83;;
9304;SDS011;4690;52.422;13.486;2024-01-15T07:23:26;8.20;;;3.10;;
9304;SDS011;4690;52.422;13.486;2024-01-15T07:25:52;7.57;;;2.70;;
9304;SDS011;4690;52.422;13.486;2024-01-15T07:28:19;10.17;;;2.97;;
9304;SDS011;4690;52.422;13.486;2024-01-15T07:30:44;7.10;;;2.90;;
9304;SDS011;4690;52.422;13.486;2024-01-15T07:33:10;10.40;;;3.23;;
9304;SDS011;4690;52.422;13.486;2024-01-15T07:35:36;8.20;;;3.10;;
9304;SDS011;4690;52.422;13.486;2024-01-15T07:38:03;9.47;;;3.37;;
9304;SDS011;4690;52.422;13.486;2024-01-15T07:40:29;8.67;;;3.30;;
9304;SDS011;4690;52.422;13.486;2024-01-15T07:42:54;7.33;;;2.70;;
9304;SDS011;4690;52.422;13.486;2024-01-15T07:45:20;8.30;;;2.63;;
9304;SDS011;4690;52.422;13.486;2024-01-15T07:47:46;8.40;;;3.00;;
9304;SDS011;4690;52.422;13.486;2024-01-15T07:50:11;9.60;;;3.23;;
9304;SDS011;4690;52.422;13.486;2024-01-15T07:52:39;10.97;;;3.07;;
9304;SDS011;4690;52.422;13.486;2024-01-15T07:55:07;11.83;;;3.60;;
9304;SDS011;4690;52.422;13.486;2024-01-15T07:57:33;8.47;;;2.80;;
9304;SDS011;4690;52.422;13.486;2024-01-15T08:00:00;10.47;;;3.93;;
9304;SDS011;4690;52.422;13.486;2024-01-15T08:02:29;10.07;;;2.97;;
9304;SDS011;4690;52.422;13.486;2024-01-15T08:04:54;9.13;;;3.03;;
9304;SDS011;4690;52.422;13.486;2024-01-15T08:07:20;6.73;;;2.80;;
9304;SDS011;4690;52.422;13.486;2024-01-15T08:09:46;10.00;;;3.07;;
9304;SDS011;4690;52.422;13.486;2024-01-15T08:12:12;9.53;;;3.10;;
9304;SDS011;4690;52.422;13.486;2024-01-15T08:14:38;11.43;;;3.53;;
9304;SDS011;4690;52.422;13.486;2024-01-15T08:17:04;8.97;;;3.20;;
9304;SDS011;4690;52.422;13.486;2024-01-15T08:19:30;8.90;;;3.00;;
9304;SDS011;4690;52.422;13.486;2024-01-15T08:21:56;8.90;;;2.93;;
9304;SDS011;4690;52.422;13.486;2024-01-15T08:24:22;8.27;;;3.03;;
9304;SDS011;4690;52.422;13.486;2024-01-15T08:26:47;11.67;;;3.00;;
9304;SDS011;4690;52.422;13.486;2024-01-15T08:29:13;11.33;;;3.20;;
9304;SDS011;4690;52.422;13.486;2024-01-15T08:31:39;7.47;;;2.70;;
9304;SDS011;4690;52.422;13.486;2024-01-15T08:34:04;8.70;;;2.90;;
9304;SDS011;4690;52.422;13.486;2024-01-15T08:36:31;7.93;;;2.97;;
9304;SDS011;4690;52.422;13.486;2024-01-15T08:38:57;8.07;;;2.70;;
9304;SDS011;4690;52.422;13.486;2024-01-15T08:41:23;8.70;;;2.90;;
9304;SDS011;4690;52.422;13.486;2024-01-15T08:43:49;7.30;;;2.87;;
9304;SDS011;4690;52.422;13.486;2024-01-15T08:46:15;7.17;;;2.70;;
9304;SDS011;4690;52.422;13.486;2024-01-15T08:48:40;7.43;;;2.87;;
9304;SDS011;4690;52.422;13.486;2024-01-15T08:51:06;6.77;;;2.43;;
9304;SDS011;4690;52.422;13.486;2024-01-15T08:53:33;9.73;;;2.70;;
9304;SDS011;4690;52.422;13.486;2024-01-15T08:55:58;7.87;;;2.50;;
9304;SDS011;4690;52.422;13.486;2024-01-15T08:58:24;6.43;;;2.90;;
9304;SDS011;4690;52.422;13.486;2024-01-15T09:00:50;8.33;;;2.60;;
9304;SDS011;4690;52.422;13.486;2024-01-15T09:03:17;9.67;;;2.90;;
9304;SDS011;4690;52.422;13.486;2024-01-15T09:05:43;7.17;;;2.90;;
9304;SDS011;4690;52.422;13.486;2024-01-15T09:08:08;7.43;;;2.67;;
9304;SDS011;4690;52.422;13.486;2024-01-15T09:10:34;10.93;;;3.23;;
9304;SDS011;4690;52.422;13.486;2024-01-15T09:13:00;9.03;;;2.87;;
9304;SDS011;4690;52.422;13.486;2024-01-15T09:15:26;7.17;;;2.90;;
9304;SDS011;4690;52.422;13.486;2024-01-15T09:17:52;7.80;;;3.03;;
9304;SDS011;4690;52.422;13.486;2024-01-15T09:20:18;7.67;;;2.53;;
9304;SDS011;4690;52.422;13.486;2024-01-15T09:22:44;8.40;;;2.90;;
9304;SDS011;4690;52.422;13.486;2024-01-15T09:25:10;7.07;;;2.80;;
9304;SDS011;4690;52.422;13.486;2024-01-15T09:27:36;8.87;;;3.03;;
9304;SDS011;4690;52.422;13.486;2024-01-15T09:30:03;13.23;;;3.27;;
9304;SDS011;4690;52.422;13.486;2024-01-15T09:32:30;9.50;;;2.83;;
9304;SDS011;4690;52.422;13.486;2024-01-15T09:34:56;6.50;;;2.80;;
9304;SDS011;4690;52.422;13.486;2024-01-15T09:37:22;9.77;;;3.10;;
9304;SDS011;4690;52.422;13.486;2024-01-15T09:39:48;7.87;;;3.50;;
9304;SDS011;4690;52.422;13.486;2024-01-15T09:42:15;8.13;;;3.00;;
9304;SDS011;4690;52.422;13.486;2024-01-15T09:44:41;7.67;;;3.00;;
9304;SDS011;4690;52.422;13.486;2024-01-15T09:47:07;7.43;;;3.13;;
9304;SDS011;4690;52.422;13.486;2024-01-15T09:49:34;12.13;;;3.00;;
9304;SDS011;4690;52.422;13.486;2024-01-15T09:52:00;8.10;;;2.87;;
9304;SDS011;4690;52.422;13.486;2024-01-15T09:54:27;6.23;;;2.70;;
9304;SDS011;4690;52.422;13.486;2024-01-15T09:56:53;5.83;;;2.43;;
9304;SDS011;4690;52.422;13.486;2024-01-15T09:59:20;5.53;;;2.50;;
9304;SDS011;4690;52.422;13.486;2024-01-15T10:01:50;9.10;;;3.53;;
9304;SDS011;4690;52.422;13.486;2024-01-15T10:04:17;6.90;;;3.60;;
9304;SDS011;4690;52.422;13.486;2024-01-15T10:06:44;7.47;;;4.40;;
9304;SDS011;4690;52.422;13.486;2024-01-15T10:09:14;7.37;;;3.33;;
9304;SDS011;4690;52.422;13.486;2024-01-15T10:11:41;7.43;;;4.17;;
9304;SDS011;4690;52.422;13.486;2024-01-15T10:14:09;7.40;;;3.67;;
9304;SDS011;4690;52.422;13.486;2024-01-15T10:16:38;6.90;;;4.17;;
9304;SDS011;4690;52.422;13.486;2024-01-15T10:19:05;6.43;;;3.50;;
9304;SDS011;4690;52.422;13.486;2024-01-15T10:21:32;8.77;;;3.50;;
9304;SDS011;4690;52.422;13.486;2024-01-15T10:23:59;5.37;;;2.60;;
9304;SDS011;4690;52.422;13.486;2024-01-15T10:26:27;6.13;;;2.80;;
9304;SDS011;4690;52.422;13.486;2024-01-15T10:28:54;6.83;;;3.20;;
9304;SDS011;4690;52.422;13.486;2024-01-15T10:31:20;6.10;;;2.40;;
9304;SDS011;4690;52.422;13.486;2024-01-15T10:33:47;4.47;;;2.20;;
9304;SDS011;4690;52.422;13.486;2024-01-15T10:36:14;6.20;;;2.27;;
9304;SDS011;4690;52.422;13.486;2024-01-15T10:38:45;5.40;;;2.30;;
9304;SDS011;4690;52.422;13.486;2024-01-15T10:41:12;6.00;;;2.70;;
9304;SDS011;4690;52.422;13.486;2024-01-15T10:43:38;4.07;;;2.57;;
9304;SDS011;4690;52.422;13.486;2024-01-15T10:46:06;5.27;;;2.40;;
9304;SDS011;4690;52.422;13.486;2024-01-15T10:48:33;5.67;;;2.40;;
9304;SDS011;4690;52.422;13.486;2024-01-15T10:51:00;4.10;;;2.30;;
9304;SDS011;4690;52.422;13.486;2024-01-15T10:53:35;5.23;;;2.37;;
9304;SDS011;4690;52.422;13.486;2024-01-15T10:56:06;3.97;;;1.90;;
9304;SDS011;4690;52.422;13.486;2024-01-15T10:58:35;5.27;;;2.63;;
9304;SDS011;4690;52.422;13.486;2024-01-15T11:01:02;6.47;;;2.53;;
9304;SDS011;4690;52.422;13.486;2024-01-15T11:03:29;6.03;;;2.23;;
9304;SDS011;4690;52.422;13.486;2024-01-15T11:05:55;3.93;;;2.10;;
9304;SDS011;4690;52.422;13.486;2024-01-15T11:08:21;3.77;;;2.03;;
9304;SDS011;4690;52.422;13.486;2024-01-15T11:10:53;5.50;;;2.10;;
9304;SDS011;4690;52.422;13.486;2024-01-15T11:13:39;4.03;;;2.23;;
9304;SDS011;4690;52.422;13.486;2024-01-15T11:16:07;5.37;;;2.00;;
9304;SDS011;4690;52.422;13.486;2024-01-15T11:23:42;3.47;;;2.10;;
9304;SDS011;4690;52.422;13.486;2024-01-15T11:29:30;2.60;;;1.80;;
9304;SDS011;4690;52.422;13.486;2024-01-15T11:32:09;3.20;;;1.70;;
9304;SDS011;4690;52.422;13.486;2024-01-15T11:34:54;3.43;;;2.03;;
9304;SDS011;4690;52.422;13.486;2024-01-15T11:37:29;2.20;;;1.70;;
9304;SDS011;4690;52.422;13.486;2024-01-15T11:40:22;2.63;;;1.87;;
9304;SDS011;4690;52.422;13.486;2024-01-15T11:43:01;3.47;;;1.93;;
9304;SDS011;4690;52.422;13.486;2024-01-15T11:45:28;4.03;;;2.10;;
9304;SDS011;4690;52.422;13.486;2024-01-15T11:50:28;4.53;;;1.97;;
9304;SDS011;4690;52.422;13.486;2024-01-15T11:53:00;4.23;;;2.20;;
9304;SDS011;4690;52.422;13.486;2024-01-15T11:55:35;4.27;;;2.13;;
9304;SDS011;4690;52.422;13.486;2024-01-15T11:58:09;3.70;;;2.10;;
9304;SDS011;4690;52.422;13.486;2024-01-15T12:00:35;4.10;;;2.20;;
9304;SDS011;4690;52.422;13.486;2024-01-15T12:03:17;3.13;;;2.10;;
9304;SDS011;4690;52.422;13.486;2024-01-15T12:05:47;4.57;;;2.37;;
9304;SDS011;4690;52.422;13.486;2024-01-15T12:08:13;3.47;;;2.30;;
9304;SDS011;4690;52.422;13.486;2024-01-15T12:10:39;2.40;;;2.20;;
9304;SDS011;4690;52.422;13.486;2024-01-15T12:13:16;2.93;;;2.17;;
9304;SDS011;4690;52.422;13.486;2024-01-15T12:15:45;3.03;;;2.27;;
9304;SDS011;4690;52.422;13.486;2024-01-15T12:18:13;3.37;;;2.23;;
9304;SDS011;4690;52.422;13.486;2024-01-15T12:20:42;2.90;;;2.03;;
9304;SDS011;4690;52.422;13.486;2024-01-15T12:23:11;2.83;;;1.80;;
9304;SDS011;4690;52.422;13.486;2024-01-15T12:25:38;2.93;;;1.90;;
9304;SDS011;4690;52.422;13.486;2024-01-15T12:28:05;2.70;;;2.03;;
9304;SDS011;4690;52.422;13.486;2024-01-15T12:30:32;2.80;;;1.77;;
9304;SDS011;4690;52.422;13.486;2024-01-15T12:33:04;2.70;;;2.00;;
9304;SDS011;4690;52.422;13.486;2024-01-15T12:35:31;2.40;;;1.77;;
9304;SDS011;4690;52.422;13.486;2024-01-15T12:38:01;2.97;;;2.23;;
9304;SDS011;4690;52.422;13.486;2024-01-15T12:40:28;4.30;;;1.83;;
9304;SDS011;4690;52.422;13.486;2024-01-15T12:42:53;3.43;;;2.03;;
9304;SDS011;4690;52.422;13.486;2024-01-15T12:45:20;2.23;;;1.80;;
9304;SDS011;4690;52.422;13.486;2024-01-15T12:47:46;2.30;;;1.90;;
9304;SDS011;4690;52.422;13.486;2024-01-15T12:50:12;1.83;;;1.63;;
9304;SDS011;4690;52.422;13.486;2024-01-15T12:52:42;2.00;;;1.60;;
9304;SDS011;4690;52.422;13.486;2024-01-15T12:55:08;2.93;;;1.80;;
9304;SDS011;4690;52.422;13.486;2024-01-15T12:57:35;2.13;;;1.77;;
9304;SDS011;4690;52.422;13.486;2024-01-15T13:00:02;2.00;;;1.70;;
9304;SDS011;4690;52.422;13.486;2024-01-15T13:02:32;1.90;;;1.70;;
9304;SDS011;4690;52.422;13.486;2024-01-15T13:04:59;2.60;;;1.90;;
9304;SDS011;4690;52.422;13.486;2024-01-15T13:07:25;2.10;;;1.90;;
9304;SDS011;4690;52.422;13.486;2024-01-15T13:09:52;1.80;;;1.60;;
9304;SDS011;4690;52.422;13.486;2024-01-15T13:12:19;2.10;;;1.90;;
9304;SDS011;4690;52.422;13.486;2024-01-15T13:14:45;3.60;;;1.90;;
9304;SDS011;4690;52.422;13.486;2024-01-15T13:17:12;2.50;;;1.90;;
9304;SDS011;4690;52.422;13.486;2024-01-15T13:19:42;4.63;;;1.83;;
9304;SDS011;4690;52.422;13.486;2024-01-15T13:22:07;2.87;;;2.00;;
9304;SDS011;4690;52.422;13.486;2024-01-15T13:24:34;2.87;;;1.93;;
9304;SDS011;4690;52.422;13.486;2024-01-15T13:27:01;3.43;;;2.20;;
9304;SDS011;4690;52.422;13.486;2024-01-15T13:29:29;2.80;;;2.17;;
9304;SDS011;4690;52.422;13.486;2024-01-15T13:31:55;2.30;;;2.10;;
9304;SDS011;4690;52.422;13.486;2024-01-15T13:34:21;2.73;;;2.20;;
9304;SDS011;4690;52.422;13.486;2024-01-15T13:36:47;3.17;;;2.43;;
9304;SDS011;4690;52.422;13.486;2024-01-15T13:39:14;2.33;;;2.10;;
9304;SDS011;4690;52.422;13.486;2024-01-15T13:41:45;3.20;;;2.10;;
9304;SDS011;4690;52.422;13.486;2024-01-15T13:44:11;3.67;;;2.40;;
9304;SDS011;4690;52.422;13.486;2024-01-15T13:46:37;2.80;;;2.27;;
9304;SDS011;4690;52.422;13.486;2024-01-15T13:49:03;4.20;;;2.20;;
9304;SDS011;4690;52.422;13.486;2024-01-15T13:51:31;4.77;;;2.43;;
9304;SDS011;4690;52.422;13.486;2024-01-15T13:53:57;5.17;;;2.53;;
9304;SDS011;4690;52.422;13.486;2024-01-15T13:56:23;3.43;;;2.43;;
9304;SDS011;4690;52.422;13.486;2024-01-15T13:58:49;3.40;;;2.40;;
9304;SDS011;4690;52.422;13.486;2024-01-15T14:01:15;3.93;;;2.40;;
9304;SDS011;4690;52.422;13.486;2024-01-15T14:03:42;3.50;;;2.60;;
9304;SDS011;4690;52.422;13.486;2024-01-15T14:06:09;3.50;;;2.40;;
9304;SDS011;4690;52.422;13.486;2024-01-15T14:08:35;4.27;;;2.47;;
9304;SDS011;4690;52.422;13.486;2024-01-15T14:11:02;5.37;;;3.00;;
9304;SDS011;4690;52.422;13.486;2024-01-15T14:13:30;5.27;;;3.00;;
9304;SDS011;4690;52.422;13.486;2024-01-15T14:15:57;5.93;;;2.80;;
9304;SDS011;4690;52.422;13.486;2024-01-15T14:18:23;4.20;;;2.77;;
9304;SDS011;4690;52.422;13.486;2024-01-15T14:20:48;5.30;;;2.80;;
9304;SDS011;4690;52.422;13.486;2024-01-15T14:23:14;4.23;;;2.83;;
9304;SDS011;4690;52.422;13.486;2024-01-15T14:25:40;4.67;;;2.73;;
9304;SDS011;4690;52.422;13.486;2024-01-15T14:28:05;5.03;;;2.97;;
9304;SDS011;4690;52.422;13.486;2024-01-15T14:30:31;5.20;;;3.03;;
9304;SDS011;4690;52.422;13.486;2024-01-15T14:32:57;5.33;;;2.77;;
9304;SDS011;4690;52.422;13.486;2024-01-15T14:35:23;5.23;;;2.57;;
9304;SDS011;4690;52.422;13.486;2024-01-15T14:37:49;7.67;;;3.30;;
9304;SDS011;4690;52.422;13.486;2024-01-15T14:40:14;5.30;;;2.70;;
9304;SDS011;4690;52.422;13.486;2024-01-15T14:42:41;3.70;;;2.60;;
9304;SDS011;4690;52.422;13.486;2024-01-15T14:45:07;5.63;;;2.93;;
9304;SDS011;4690;52.422;13.486;2024-01-15T14:47:39;5.57;;;2.30;;
9304;SDS011;4690;52.422;13.486;2024-01-15T14:50:07;4.80;;;2.97;;
9304;SDS011;4690;52.422;13.486;2024-01-15T14:52:37;4.47;;;2.67;;
9304;SDS011;4690;52.422;13.486;2024-01-15T14:55:04;6.17;;;2.83;;
9304;SDS011;4690;52.422;13.486;2024-01-15T14:57:31;4.00;;;2.70;;
9304;SDS011;4690;52.422;13.486;2024-01-15T14:59:56;4.17;;;2.33;;
9304;SDS011;4690;52.422;13.486;2024-01-15T15:02:23;8.70;;;2.30;;
9304;SDS011;4690;52.422;13.486;2024-01-15T15:04:53;5.33;;;2.70;;
9304;SDS011;4690;52.422;13.486;2024-01-15T15:07:20;4.17;;;2.37;;
9304;SDS011;4690;52.422;13.486;2024-01-15T15:09:47;2.67;;;2.10;;
9304;SDS011;4690;52.422;13.486;2024-01-15T15:12:15;4.00;;;2.13;;